sensor_id;sensor_type;location;lat;lon;timestamp;pressure;altitude;pressure_sealevel;temperature;humidity
12897;BME280;6516;35.028;32.372;2023-02-28T00:01:11;100849.94;;;13.11;80.65
12897;BME280;6516;35.028;32.372;2023-02-28T00:03:41;100838.41;;;13.13;80.42
12897;BME280;6516;35.028;32.372;2023-02-28T00:06:09;100840.78;;;13.30;79.79
12897;BME280;6516;35.028;32.372;2023-02-28T00:08:37;100844.97;;;13.40;79.04
12897;BME280;6516;35.028;32.372;2023-02-28T00:11:06;100845.19;;;13.28;78.95
12897;BME280;6516;35.028;32.372;2023-02-28T00:13:37;100844.59;;;13.12;79.89
12897;BME280;6516;35.028;32.372;2023-02-28T00:16:11;100844.72;;;13.03;80.29
12897;BME280;6516;35.028;32.372;2023-02-28T00:18:40;100844.94;;;12.90;81.23
12897;BME280;6516;35.028;32.372;2023-02-28T00:21:09;100840.72;;;12.78;81.71
12897;BME280;6516;35.028;32.372;2023-02-28T00:23:37;100831.19;;;12.70;82.25
12897;BME280;6516;35.028;32.372;2023-02-28T00:26:04;100824.78;;;12.83;81.10
12897;BME280;6516;35.028;32.372;2023-02-28T00:28:32;100821.47;;;12.70;81.83
12897;BME280;6516;35.028;32.372;2023-02-28T00:31:00;100818.81;;;12.72;81.38
12897;BME280;6516;35.028;32.372;2023-02-28T00:33:29;100825.84;;;12.71;81.48
12897;BME280;6516;35.028;32.372;2023-02-28T00:36:05;100817.94;;;12.71;81.12
12897;BME280;6516;35.028;32.372;2023-02-28T00:38:34;100814.31;;;12.78;81.06
12897;BME280;6516;35.028;32.372;2023-02-28T00:41:02;100811.38;;;12.98;80.33
12897;BME280;6516;35.028;32.372;2023-02-28T00:43:31;100808.56;;;13.08;79.48
12897;BME280;6516;35.028;32.372;2023-02-28T00:46:00;100809.38;;;13.12;79.17
12897;BME280;6516;35.028;32.372;2023-02-28T00:48:30;100807.66;;;13.08;79.13
12897;BME280;6516;35.028;32.372;2023-02-28T00:50:57;100802.53;;;12.99;79.66
12897;BME280;6516;35.028;32.372;2023-02-28T00:53:25;100806.00;;;13.02;79.56
12897;BME280;6516;35.028;32.372;2023-02-28T00:55:53;100801.59;;;13.03;79.32
12897;BME280;6516;35.028;32.372;2023-02-28T00:58:21;100802.41;;;13.06;79.04
12897;BME280;6516;35.028;32.372;2023-02-28T01:00:49;100795.34;;;13.07;78.45
12897;BME280;6516;35.028;32.372;2023-02-28T01:03:19;100798.78;;;13.12;78.96
12897;BME280;6516;35.028;32.372;2023-02-28T01:05:49;100800.47;;;13.16;78.14
12897;BME280;6516;35.028;32.372;2023-02-28T01:08:18;100797.66;;;13.26;77.41
12897;BME280;6516;35.028;32.372;2023-02-28T01:10:46;100796.75;;;13.27;77.15
12897;BME280;6516;35.028;32.372;2023-02-28T01:13:15;100798.53;;;13.25;76.90
12897;BME280;6516;35.028;32.372;2023-02-28T01:15:49;100797.81;;;13.17;77.13
12897;BME280;6516;35.028;32.372;2023-02-28T01:18:18;100787.19;;;13.19;76.83
12897;BME280;6516;35.028;32.372;2023-02-28T01:20:46;100790.50;;;13.31;76.34
12897;BME280;6516;35.028;32.372;2023-02-28T01:23:15;100785.97;;;13.38;75.93
12897;BME280;6516;35.028;32.372;2023-02-28T01:25:43;100786.34;;;13.17;76.59
12897;BME280;6516;35.028;32.372;2023-02-28T01:28:10;100786.34;;;13.17;76.34
12897;BME280;6516;35.028;32.372;2023-02-28T01:30:38;100789.91;;;13.16;76.34
12897;BME280;6516;35.028;32.372;2023-02-28T01:33:06;100789.91;;;13.16;76.10
12897;BME280;6516;35.028;32.372;2023-02-28T01:35:34;100788.03;;;13.21;75.77
12897;BME280;6516;35.028;32.372;2023-02-28T01:38:02;100792.44;;;13.22;75.30
12897;BME280;6516;35.028;32.372;2023-02-28T01:40:32;100781.78;;;13.26;75.27
12897;BME280;6516;35.028;32.372;2023-02-28T01:42:59;100787.94;;;13.25;74.83
12897;BME280;6516;35.028;32.372;2023-02-28T01:45:29;100785.44;;;13.19;74.65
12897;BME280;6516;35.028;32.372;2023-02-28T01:48:02;100787.47;;;13.04;74.97
12897;BME280;6516;35.028;32.372;2023-02-28T01:50:34;100789.44;;;12.90;75.55
12897;BME280;6516;35.028;32.372;2023-02-28T01:53:08;100793.97;;;12.83;75.62
12897;BME280;6516;35.028;32.372;2023-02-28T01:55:42;100785.16;;;12.83;75.53
12897;BME280;6516;35.028;32.372;2023-02-28T01:58:14;100786.78;;;12.91;74.50
12897;BME280;6516;35.028;32.372;2023-02-28T02:00:43;100778.72;;;13.02;73.60
12897;BME280;6516;35.028;32.372;2023-02-28T02:03:13;100784.94;;;12.99;73.28
12897;BME280;6516;35.028;32.372;2023-02-28T02:05:45;100784.00;;;13.00;73.10
12897;BME280;6516;35.028;32.372;2023-02-28T02:08:16;100785.06;;;12.89;73.92
12897;BME280;6516;35.028;32.372;2023-02-28T02:10:49;100779.66;;;12.95;73.58
12897;BME280;6516;35.028;32.372;2023-02-28T02:13:29;100777.94;;;12.94;73.53
12897;BME280;6516;35.028;32.372;2023-02-28T02:16:15;100777.94;;;12.94;73.65
12897;BME280;6516;35.028;32.372;2023-02-28T02:18:52;100776.13;;;12.94;73.66
12897;BME280;6516;35.028;32.372;2023-02-28T02:24:49;100770.28;;;13.29;71.40
12897;BME280;6516;35.028;32.372;2023-02-28T02:28:17;100765.31;;;13.56;69.67
12897;BME280;6516;35.028;32.372;2023-02-28T02:34:29;100766.16;;;13.58;69.35
12897;BME280;6516;35.028;32.372;2023-02-28T02:37:13;100774.94;;;13.59;69.51
12897;BME280;6516;35.028;32.372;2023-02-28T02:39:51;100774.19;;;13.54;69.38
12897;BME280;6516;35.028;32.372;2023-02-28T02:42:25;100769.09;;;13.43;69.92
12897;BME280;6516;35.028;32.372;2023-02-28T02:45:00;100775.56;;;13.29;70.88
12897;BME280;6516;35.028;32.372;2023-02-28T02:47:31;100777.97;;;13.39;68.96
12897;BME280;6516;35.028;32.372;2023-02-28T02:50:05;100776.16;;;13.44;68.55
12897;BME280;6516;35.028;32.372;2023-02-28T02:52:39;100781.66;;;13.32;69.92
12897;BME280;6516;35.028;32.372;2023-02-28T02:55:11;100782.63;;;13.27;69.89
12897;BME280;6516;35.028;32.372;2023-02-28T02:57:43;100786.06;;;13.32;67.63
12897;BME280;6516;35.028;32.372;2023-02-28T03:00:16;100779.78;;;13.37;66.21
12897;BME280;6516;35.028;32.372;2023-02-28T03:02:47;100784.88;;;13.48;65.69
12897;BME280;6516;35.028;32.372;2023-02-28T03:05:20;100788.19;;;13.59;65.13
12897;BME280;6516;35.028;32.372;2023-02-28T03:07:51;100783.03;;;13.51;65.28
12897;BME280;6516;35.028;32.372;2023-02-28T03:10:34;100792.38;;;13.26;66.93
12897;BME280;6516;35.028;32.372;2023-02-28T03:13:13;100779.00;;;13.34;66.44
12897;BME280;6516;35.028;32.372;2023-02-28T03:16:06;100783.41;;;13.32;66.90
12897;BME280;6516;35.028;32.372;2023-02-28T03:18:56;100779.75;;;13.40;66.85
12897;BME280;6516;35.028;32.372;2023-02-28T03:21:42;100779.88;;;13.33;67.03
12897;BME280;6516;35.028;32.372;2023-02-28T03:24:15;100784.34;;;13.29;66.56
12897;BME280;6516;35.028;32.372;2023-02-28T03:26:50;100789.91;;;13.16;67.15
12897;BME280;6516;35.028;32.372;2023-02-28T03:29:26;100786.41;;;13.14;66.88
12897;BME280;6516;35.028;32.372;2023-02-28T03:32:02;100780.84;;;13.29;65.64
12897;BME280;6516;35.028;32.372;2023-02-28T03:34:34;100781.53;;;13.38;65.06
12897;BME280;6516;35.028;32.372;2023-02-28T03:37:10;100781.34;;;13.49;64.98
12897;BME280;6516;35.028;32.372;2023-02-28T03:39:42;100788.63;;;13.38;65.11
12897;BME280;6516;35.028;32.372;2023-02-28T03:42:14;100791.59;;;13.20;65.76
12897;BME280;6516;35.028;32.372;2023-02-28T03:44:45;100786.97;;;13.31;64.56
12897;BME280;6516;35.028;32.372;2023-02-28T03:47:17;100779.47;;;13.54;63.36
12897;BME280;6516;35.028;32.372;2023-02-28T03:49:52;100787.63;;;13.42;63.73
12897;BME280;6516;35.028;32.372;2023-02-28T03:52:27;100783.81;;;13.58;62.20
12897;BME280;6516;35.028;32.372;2023-02-28T03:55:01;100784.56;;;13.64;62.00
12897;BME280;6516;35.028;32.372;2023-02-28T03:57:35;100780.41;;;13.51;62.23
12897;BME280;6516;35.028;32.372;2023-02-28T04:00:10;100789.06;;;13.59;61.09
12897;BME280;6516;35.028;32.372;2023-02-28T04:02:42;100792.81;;;13.48;61.44
12897;BME280;6516;35.028;32.372;2023-02-28T04:05:10;100789.13;;;13.56;59.59
12897;BME280;6516;35.028;32.372;2023-02-28T04:07:39;100786.66;;;13.46;60.88
12897;BME280;6516;35.028;32.372;2023-02-28T04:10:09;100783.78;;;13.59;57.75
12897;BME280;6516;35.028;32.372;2023-02-28T04:12:39;100788.91;;;13.67;57.06
12897;BME280;6516;35.028;32.372;2023-02-28T04:15:07;100786.03;;;13.79;56.58
12897;BME280;6516;35.028;32.372;2023-02-28T04:17:36;100785.13;;;13.80;56.48
12897;BME280;6516;35.028;32.372;2023-02-28T04:20:04;100788.56;;;13.83;55.07
12897;BME280;6516;35.028;32.372;2023-02-28T04:22:35;100788.19;;;13.59;57.13
12897;BME280;6516;35.028;32.372;2023-02-28T04:25:06;100789.44;;;13.40;56.95
12897;BME280;6516;35.028;32.372;2023-02-28T04:27:34;100792.78;;;13.49;55.58
12897;BME280;6516;35.028;32.372;2023-02-28T04:30:03;100787.16;;;13.67;54.22
12897;BME280;6516;35.028;32.372;2023-02-28T04:32:31;100784.97;;;13.86;53.07
12897;BME280;6516;35.028;32.372;2023-02-28T04:34:59;100787.59;;;13.87;53.66
12897;BME280;6516;35.028;32.372;2023-02-28T04:37:27;100782.16;;;13.93;53.07
12897;BME280;6516;35.028;32.372;2023-02-28T04:39:54;100790.03;;;13.98;53.23
12897;BME280;6516;35.028;32.372;2023-02-28T04:42:26;100791.50;;;14.11;52.45
12897;BME280;6516;35.028;32.372;2023-02-28T04:45:01;100789.66;;;14.14;52.89
12897;BME280;6516;35.028;32.372;2023-02-28T04:47:28;100795.00;;;14.11;53.88
12897;BME280;6516;35.028;32.372;2023-02-28T04:49:56;100805.50;;;14.16;53.83
12897;BME280;6516;35.028;32.372;2023-02-28T04:52:24;100809.38;;;14.00;56.02
12897;BME280;6516;35.028;32.372;2023-02-28T04:54:52;100808.34;;;14.07;55.37
12897;BME280;6516;35.028;32.372;2023-02-28T04:57:19;100807.25;;;14.17;54.65
12897;BME280;6516;35.028;32.372;2023-02-28T04:59:48;100806.09;;;14.31;54.01
12897;BME280;6516;35.028;32.372;2023-02-28T05:02:16;100806.69;;;14.42;54.06
12897;BME280;6516;35.028;32.372;2023-02-28T05:04:44;100801.72;;;14.65;52.97
12897;BME280;6516;35.028;32.372;2023-02-28T05:07:11;100795.91;;;14.86;52.07
12897;BME280;6516;35.028;32.372;2023-02-28T05:09:39;100797.97;;;15.09;51.02
12897;BME280;6516;35.028;32.372;2023-02-28T05:12:08;100799.34;;;15.25;52.31
12897;BME280;6516;35.028;32.372;2023-02-28T05:14:36;100799.41;;;15.22;53.38
12897;BME280;6516;35.028;32.372;2023-02-28T05:17:05;100806.25;;;15.30;53.00
12897;BME280;6516;35.028;32.372;2023-02-28T05:19:33;100800.69;;;15.41;53.33
12897;BME280;6516;35.028;32.372;2023-02-28T05:22:01;100800.69;;;15.41;54.38
12897;BME280;6516;35.028;32.372;2023-02-28T05:24:29;100804.19;;;15.43;55.02
12897;BME280;6516;35.028;32.372;2023-02-28T05:26:57;100807.50;;;15.51;55.76
12897;BME280;6516;35.028;32.372;2023-02-28T05:29:24;100808.25;;;15.56;58.00
12897;BME280;6516;35.028;32.372;2023-02-28T05:31:52;100806.34;;;15.61;58.25
12897;BME280;6516;35.028;32.372;2023-02-28T05:34:21;100803.16;;;15.79;54.91
12897;BME280;6516;35.028;32.372;2023-02-28T05:36:49;100803.41;;;16.00;54.29
12897;BME280;6516;35.028;32.372;2023-02-28T05:39:17;100811.38;;;16.29;53.55
12897;BME280;6516;35.028;32.372;2023-02-28T05:41:45;100815.75;;;16.61;55.55
12897;BME280;6516;35.028;32.372;2023-02-28T05:44:12;100816.78;;;16.83;54.90
12897;BME280;6516;35.028;32.372;2023-02-28T05:46:40;100812.91;;;16.93;55.57
12897;BME280;6516;35.028;32.372;2023-02-28T05:49:08;100824.66;;;17.12;54.93
12897;BME280;6516;35.028;32.372;2023-02-28T05:51:37;100822.31;;;17.29;55.24
12897;BME280;6516;35.028;32.372;2023-02-28T05:54:05;100820.22;;;17.63;56.07
12897;BME280;6516;35.028;32.372;2023-02-28T05:56:34;100807.94;;;17.83;55.45
12897;BME280;6516;35.028;32.372;2023-02-28T05:59:03;100814.38;;;18.01;54.37
12897;BME280;6516;35.028;32.372;2023-02-28T06:01:33;100812.72;;;18.21;53.95
12897;BME280;6516;35.028;32.372;2023-02-28T06:04:04;100808.31;;;18.43;54.02
12897;BME280;6516;35.028;32.372;2023-02-28T06:06:32;100813.41;;;18.71;53.37
12897;BME280;6516;35.028;32.372;2023-02-28T06:09:03;100810.50;;;18.98;53.09
12897;BME280;6516;35.028;32.372;2023-02-28T06:11:31;100808.50;;;19.25;50.94
12897;BME280;6516;35.028;32.372;2023-02-28T06:14:00;100808.19;;;19.52;52.79
12897;BME280;6516;35.028;32.372;2023-02-28T06:16:29;100806.16;;;19.77;57.71
12897;BME280;6516;35.028;32.372;2023-02-28T06:18:59;100798.84;;;20.01;55.61
12897;BME280;6516;35.028;32.372;2023-02-28T06:21:28;100794.34;;;20.22;52.42
12897;BME280;6516;35.028;32.372;2023-02-28T06:23:56;100803.03;;;20.45;50.85
12897;BME280;6516;35.028;32.372;2023-02-28T06:26:26;100803.41;;;20.73;51.61
12897;BME280;6516;35.028;32.372;2023-02-28T06:28:54;100802.94;;;21.01;50.04
12897;BME280;6516;35.028;32.372;2023-02-28T06:31:23;100801.63;;;21.26;52.59
12897;BME280;6516;35.028;32.372;2023-02-28T06:33:51;100797.38;;;21.56;53.14
12897;BME280;6516;35.028;32.372;2023-02-28T06:36:19;100794.63;;;21.75;52.67
12897;BME280;6516;35.028;32.372;2023-02-28T06:38:47;100788.41;;;22.07;51.11
12897;BME280;6516;35.028;32.372;2023-02-28T06:41:21;100782.34;;;22.19;51.18
12897;BME280;6516;35.028;32.372;2023-02-28T06:43:50;100790.16;;;22.23;49.35
12897;BME280;6516;35.028;32.372;2023-02-28T06:46:19;100790.78;;;22.44;49.08
12897;BME280;6516;35.028;32.372;2023-02-28T06:48:47;100793.50;;;22.59;47.63
12897;BME280;6516;35.028;32.372;2023-02-28T06:51:17;100795.16;;;22.77;47.10
12897;BME280;6516;35.028;32.372;2023-02-28T06:53:47;100784.97;;;22.98;45.71
12897;BME280;6516;35.028;32.372;2023-02-28T06:56:16;100794.13;;;23.09;45.36
12897;BME280;6516;35.028;32.372;2023-02-28T06:58:46;100795.28;;;23.21;44.83
12897;BME280;6516;35.028;32.372;2023-02-28T07:01:16;100790.53;;;23.40;44.98
12897;BME280;6516;35.028;32.372;2023-02-28T07:03:44;100793.78;;;23.45;44.37
12897;BME280;6516;35.028;32.372;2023-02-28T07:06:18;100789.53;;;23.70;43.53
12897;BME280;6516;35.028;32.372;2023-02-28T07:08:45;100787.63;;;23.86;43.94
12897;BME280;6516;35.028;32.372;2023-02-28T07:11:13;100790.84;;;24.21;44.91
12897;BME280;6516;35.028;32.372;2023-02-28T07:13:41;100783.22;;;24.27;45.78
12897;BME280;6516;35.028;32.372;2023-02-28T07:16:10;100788.97;;;24.49;46.47
12897;BME280;6516;35.028;32.372;2023-02-28T07:18:40;100789.63;;;24.67;45.75
12897;BME280;6516;35.028;32.372;2023-02-28T07:21:11;100788.97;;;24.90;46.58
12897;BME280;6516;35.028;32.372;2023-02-28T07:23:39;100779.03;;;25.17;46.52
12897;BME280;6516;35.028;32.372;2023-02-28T07:26:11;100784.94;;;25.36;46.48
12897;BME280;6516;35.028;32.372;2023-02-28T07:28:41;100780.78;;;25.57;46.47
12897;BME280;6516;35.028;32.372;2023-02-28T07:31:10;100774.19;;;25.73;45.51
12897;BME280;6516;35.028;32.372;2023-02-28T07:33:41;100776.59;;;25.90;43.79
12897;BME280;6516;35.028;32.372;2023-02-28T07:36:11;100777.13;;;26.08;43.52
12897;BME280;6516;35.028;32.372;2023-02-28T07:38:41;100774.56;;;26.19;42.25
12897;BME280;6516;35.028;32.372;2023-02-28T07:41:10;100781.78;;;26.18;42.89
12897;BME280;6516;35.028;32.372;2023-02-28T07:43:38;100778.94;;;26.32;41.63
12897;BME280;6516;35.028;32.372;2023-02-28T07:46:07;100766.97;;;26.24;40.33
12897;BME280;6516;35.028;32.372;2023-02-28T07:48:36;100768.25;;;26.31;40.38
12897;BME280;6516;35.028;32.372;2023-02-28T07:51:05;100767.59;;;26.27;40.57
12897;BME280;6516;35.028;32.372;2023-02-28T07:53:33;100769.03;;;26.08;40.03
12897;BME280;6516;35.028;32.372;2023-02-28T07:56:02;100776.06;;;25.98;40.11
12897;BME280;6516;35.028;32.372;2023-02-28T07:58:30;100777.56;;;25.89;39.66
12897;BME280;6516;35.028;32.372;2023-02-28T08:01:05;100769.59;;;26.00;38.47
12897;BME280;6516;35.028;32.372;2023-02-28T08:03:33;100788.38;;;25.89;37.42
12897;BME280;6516;35.028;32.372;2023-02-28T08:06:02;100782.97;;;25.89;36.57
12897;BME280;6516;35.028;32.372;2023-02-28T08:08:31;100773.47;;;25.96;37.08
12897;BME280;6516;35.028;32.372;2023-02-28T08:11:00;100770.66;;;26.10;36.87
12897;BME280;6516;35.028;32.372;2023-02-28T08:13:28;100770.53;;;26.24;36.40
12897;BME280;6516;35.028;32.372;2023-02-28T08:15:57;100760.56;;;26.37;35.89
12897;BME280;6516;35.028;32.372;2023-02-28T08:18:25;100760.66;;;26.48;36.88
12897;BME280;6516;35.028;32.372;2023-02-28T08:20:52;100757.56;;;26.65;36.67
12897;BME280;6516;35.028;32.372;2023-02-28T08:23:20;100754.69;;;26.92;36.62
12897;BME280;6516;35.028;32.372;2023-02-28T08:25:54;100752.25;;;27.00;36.48
12897;BME280;6516;35.028;32.372;2023-02-28T08:28:23;100741.88;;;27.17;35.56
12897;BME280;6516;35.028;32.372;2023-02-28T08:30:50;100741.38;;;27.13;37.07
12897;BME280;6516;35.028;32.372;2023-02-28T08:33:19;100737.63;;;27.26;36.69
12897;BME280;6516;35.028;32.372;2023-02-28T08:35:46;100738.19;;;27.53;36.88
12897;BME280;6516;35.028;32.372;2023-02-28T08:38:14;100730.44;;;27.49;37.12
12897;BME280;6516;35.028;32.372;2023-02-28T08:40:42;100732.78;;;27.53;36.67
12897;BME280;6516;35.028;32.372;2023-02-28T08:43:11;100728.63;;;27.60;36.29
12897;BME280;6516;35.028;32.372;2023-02-28T08:45:39;100725.31;;;27.68;36.23
12897;BME280;6516;35.028;32.372;2023-02-28T08:48:07;100721.41;;;27.83;36.22
12897;BME280;6516;35.028;32.372;2023-02-28T08:50:34;100722.16;;;27.96;36.54
12897;BME280;6516;35.028;32.372;2023-02-28T08:53:02;100716.97;;;28.15;36.34
12897;BME280;6516;35.028;32.372;2023-02-28T08:55:30;100723.75;;;28.20;35.85
12897;BME280;6516;35.028;32.372;2023-02-28T08:57:58;100719.69;;;28.15;34.91
12897;BME280;6516;35.028;32.372;2023-02-28T09:00:28;100720.19;;;28.09;35.63
12897;BME280;6516;35.028;32.372;2023-02-28T09:02:56;100718.94;;;28.13;35.83
12897;BME280;6516;35.028;32.372;2023-02-28T09:05:23;100719.44;;;28.18;37.23
12897;BME280;6516;35.028;32.372;2023-02-28T09:07:51;100712.94;;;28.09;38.71
12897;BME280;6516;35.028;32.372;2023-02-28T09:10:19;100702.94;;;28.21;38.11
12897;BME280;6516;35.028;32.372;2023-02-28T09:12:47;100703.66;;;28.34;38.92
12897;BME280;6516;35.028;32.372;2023-02-28T09:15:14;100695.78;;;28.42;38.12
12897;BME280;6516;35.028;32.372;2023-02-28T09:17:44;100698.72;;;28.50;37.49
12897;BME280;6516;35.028;32.372;2023-02-28T09:20:12;100698.69;;;28.61;37.03
12897;BME280;6516;35.028;32.372;2023-02-28T09:22:40;100697.25;;;28.57;37.69
12897;BME280;6516;35.028;32.372;2023-02-28T09:25:07;100691.31;;;28.63;37.00
12897;BME280;6516;35.028;32.372;2023-02-28T09:27:35;100686.22;;;28.69;37.76
12897;BME280;6516;35.028;32.372;2023-02-28T09:30:03;100682.34;;;28.83;37.44
12897;BME280;6516;35.028;32.372;2023-02-28T09:32:32;100682.28;;;28.73;36.83
12897;BME280;6516;35.028;32.372;2023-02-28T09:35:01;100678.34;;;28.98;37.45
12897;BME280;6516;35.028;32.372;2023-02-28T09:37:29;100672.34;;;29.15;34.59
12897;BME280;6516;35.028;32.372;2023-02-28T09:39:56;100671.56;;;29.24;33.59
12897;BME280;6516;35.028;32.372;2023-02-28T09:42:31;100659.53;;;29.37;32.85
12897;BME280;6516;35.028;32.372;2023-02-28T09:45:03;100657.38;;;29.41;33.75
12897;BME280;6516;35.028;32.372;2023-02-28T09:47:50;100660.53;;;29.36;35.25
12897;BME280;6516;35.028;32.372;2023-02-28T09:50:28;100658.66;;;29.16;35.07
12897;BME280;6516;35.028;32.372;2023-02-28T09:52:59;100657.22;;;28.81;34.88
12897;BME280;6516;35.028;32.372;2023-02-28T09:55:34;100657.22;;;28.81;35.88
12897;BME280;6516;35.028;32.372;2023-02-28T09:58:15;100654.41;;;28.40;33.97
12897;BME280;6516;35.028;32.372;2023-02-28T10:00:54;100639.09;;;28.50;35.05
12897;BME280;6516;35.028;32.372;2023-02-28T10:03:29;100636.22;;;28.09;35.00
12897;BME280;6516;35.028;32.372;2023-02-28T10:06:08;100635.50;;;28.07;35.19
12897;BME280;6516;35.028;32.372;2023-02-28T10:08:45;100634.59;;;28.28;35.59
12897;BME280;6516;35.028;32.372;2023-02-28T10:11:20;100631.97;;;28.38;35.05
12897;BME280;6516;35.028;32.372;2023-02-28T10:13:52;100622.13;;;28.48;33.94
12897;BME280;6516;35.028;32.372;2023-02-28T10:16:31;100623.91;;;28.58;34.47
12897;BME280;6516;35.028;32.372;2023-02-28T10:19:04;100614.47;;;28.53;35.33
12897;BME280;6516;35.028;32.372;2023-02-28T10:21:38;100606.81;;;28.58;35.89
12897;BME280;6516;35.028;32.372;2023-02-28T10:24:19;100598.22;;;28.53;35.88
12897;BME280;6516;35.028;32.372;2023-02-28T10:26:52;100595.44;;;28.64;36.53
12897;BME280;6516;35.028;32.372;2023-02-28T10:29:24;100587.75;;;28.69;36.45
12897;BME280;6516;35.028;32.372;2023-02-28T10:31:51;100589.22;;;28.73;37.51
12897;BME280;6516;35.028;32.372;2023-02-28T10:34:19;100580.25;;;28.93;38.01
12897;BME280;6516;35.028;32.372;2023-02-28T10:36:49;100585.00;;;28.80;36.40
12897;BME280;6516;35.028;32.372;2023-02-28T10:39:37;100575.94;;;28.70;36.21
12897;BME280;6516;35.028;32.372;2023-02-28T10:42:19;100574.88;;;28.61;35.47
12897;BME280;6516;35.028;32.372;2023-02-28T10:45:05;100575.31;;;28.46;36.13
12897;BME280;6516;35.028;32.372;2023-02-28T10:47:48;100569.69;;;28.58;37.63
12897;BME280;6516;35.028;32.372;2023-02-28T10:50:37;100566.09;;;28.69;38.03
12897;BME280;6516;35.028;32.372;2023-02-28T10:53:32;100551.47;;;28.40;37.68
12897;BME280;6516;35.028;32.372;2023-02-28T10:56:04;100550.03;;;28.25;37.22
12897;BME280;6516;35.028;32.372;2023-02-28T10:58:47;100545.84;;;28.21;36.00
12897;BME280;6516;35.028;32.372;2023-02-28T11:01:17;100538.53;;;28.32;37.41
12897;BME280;6516;35.028;32.372;2023-02-28T11:03:47;100533.59;;;28.37;39.11
12897;BME280;6516;35.028;32.372;2023-02-28T11:06:18;100536.66;;;28.44;39.40
12897;BME280;6516;35.028;32.372;2023-02-28T11:08:50;100535.66;;;28.45;40.26
12897;BME280;6516;35.028;32.372;2023-02-28T11:11:21;100532.38;;;28.62;39.72
12897;BME280;6516;35.028;32.372;2023-02-28T11:13:53;100535.25;;;28.70;40.01
12897;BME280;6516;35.028;32.372;2023-02-28T11:16:32;100535.44;;;28.68;41.70
12897;BME280;6516;35.028;32.372;2023-02-28T11:19:02;100536.06;;;28.61;42.30
12897;BME280;6516;35.028;32.372;2023-02-28T11:21:33;100534.78;;;28.44;42.91
12897;BME280;6516;35.028;32.372;2023-02-28T11:24:12;100533.66;;;28.15;44.10
12897;BME280;6516;35.028;32.372;2023-02-28T11:26:47;100533.91;;;27.81;45.07
12897;BME280;6516;35.028;32.372;2023-02-28T11:29:20;100531.69;;;27.64;44.20
12897;BME280;6516;35.028;32.372;2023-02-28T11:32:05;100534.06;;;27.46;45.10
12897;BME280;6516;35.028;32.372;2023-02-28T11:34:40;100539.56;;;27.34;46.14
12897;BME280;6516;35.028;32.372;2023-02-28T11:37:12;100540.31;;;27.36;46.15
12897;BME280;6516;35.028;32.372;2023-02-28T11:39:43;100545.69;;;27.13;46.41
12897;BME280;6516;35.028;32.372;2023-02-28T11:45:19;100543.72;;;26.93;47.17
12897;BME280;6516;35.028;32.372;2023-02-28T11:47:56;100545.78;;;26.79;47.77
12897;BME280;6516;35.028;32.372;2023-02-28T11:50:42;100527.69;;;26.68;47.44
12897;BME280;6516;35.028;32.372;2023-02-28T11:53:21;100529.19;;;26.72;47.33
12897;BME280;6516;35.028;32.372;2023-02-28T11:55:55;100522.91;;;26.72;47.31
12897;BME280;6516;35.028;32.372;2023-02-28T11:58:45;100522.22;;;26.92;47.38
12897;BME280;6516;35.028;32.372;2023-02-28T12:01:29;100523.19;;;27.02;47.78
12897;BME280;6516;35.028;32.372;2023-02-28T12:04:16;100516.94;;;27.13;47.52
12897;BME280;6516;35.028;32.372;2023-02-28T12:06:57;100516.22;;;27.22;48.45
12897;BME280;6516;35.028;32.372;2023-02-28T12:09:44;100510.56;;;27.02;48.98
12897;BME280;6516;35.028;32.372;2023-02-28T12:12:29;100512.16;;;27.05;48.20
12897;BME280;6516;35.028;32.372;2023-02-28T12:18:27;100502.31;;;27.15;47.80
12897;BME280;6516;35.028;32.372;2023-02-28T12:21:14;100503.16;;;27.04;47.93
12897;BME280;6516;35.028;32.372;2023-02-28T12:24:07;100500.44;;;27.15;48.32
12897;BME280;6516;35.028;32.372;2023-02-28T12:26:46;100499.03;;;27.23;48.45
12897;BME280;6516;35.028;32.372;2023-02-28T12:29:21;100493.09;;;27.17;48.64
12897;BME280;6516;35.028;32.372;2023-02-28T12:31:55;100475.28;;;27.15;48.74
12897;BME280;6516;35.028;32.372;2023-02-28T12:34:31;100484.78;;;27.21;48.77
12897;BME280;6516;35.028;32.372;2023-02-28T12:37:05;100480.69;;;27.15;48.62
12897;BME280;6516;35.028;32.372;2023-02-28T12:39:38;100483.88;;;27.31;49.45
12897;BME280;6516;35.028;32.372;2023-02-28T12:42:13;100467.53;;;27.44;48.41
12897;BME280;6516;35.028;32.372;2023-02-28T12:44:51;100473.38;;;27.60;46.23
12897;BME280;6516;35.028;32.372;2023-02-28T12:47:21;100465.84;;;27.74;44.88
12897;BME280;6516;35.028;32.372;2023-02-28T12:49:51;100472.00;;;27.87;45.24
12897;BME280;6516;35.028;32.372;2023-02-28T12:52:25;100463.09;;;27.96;44.05
12897;BME280;6516;35.028;32.372;2023-02-28T12:55:03;100464.38;;;28.13;46.43
12897;BME280;6516;35.028;32.372;2023-02-28T12:57:38;100459.50;;;28.27;46.77
12897;BME280;6516;35.028;32.372;2023-02-28T13:00:13;100456.63;;;28.29;48.68
12897;BME280;6516;35.028;32.372;2023-02-28T13:03:11;100455.28;;;28.55;47.48
12897;BME280;6516;35.028;32.372;2023-02-28T13:06:36;100453.53;;;28.13;48.14
12897;BME280;6516;35.028;32.372;2023-02-28T13:09:13;100456.91;;;28.05;47.54
12897;BME280;6516;35.028;32.372;2023-02-28T13:11:43;100458.19;;;27.90;47.99
12897;BME280;6516;35.028;32.372;2023-02-28T13:14:26;100452.78;;;27.79;48.44
12897;BME280;6516;35.028;32.372;2023-02-28T13:17:11;100446.09;;;27.63;50.12
12897;BME280;6516;35.028;32.372;2023-02-28T13:19:42;100453.38;;;27.51;50.83
12897;BME280;6516;35.028;32.372;2023-02-28T13:22:18;100447.09;;;27.51;50.26
12897;BME280;6516;35.028;32.372;2023-02-28T13:24:49;100452.66;;;26.94;52.13
12897;BME280;6516;35.028;32.372;2023-02-28T13:27:35;100451.44;;;26.98;51.97
12897;BME280;6516;35.028;32.372;2023-02-28T13:33:29;100450.69;;;26.28;53.23